Terminal Aerodrome Forecast
Issued by NWS

Home | Current Version | Previous Version | Text Only | Print | Product List | Glossary On
Versions: 1 2 3 4 5 6 7 8 9 10 11 12 13 14 15
000
FTUS43 KABR 011610 AAB
TAFPIR
TAF AMD
KPIR 011610Z 0116/0212 VRB04KT P6SM OVC024
     FM012000 04008KT P6SM FEW100 SCT200
     FM020600 33006KT P6SM OVC250=

USA.gov is the U.S. government's official web portal to all federal, state and local government web resources and services.